createdAt,value
2023-01-27T00:01:23.753Z,102303.97
2023-01-27T00:03:51.233Z,102304.16
2023-01-27T00:06:18.629Z,102305.84
2023-01-27T00:08:46.172Z,102304.06
2023-01-27T00:11:32.209Z,102311.78
2023-01-27T00:13:59.838Z,102302.84
2023-01-27T00:16:27.407Z,102307.03
2023-01-27T00:18:54.955Z,102311.19
2023-01-27T00:21:40.764Z,102311.19
2023-01-27T00:24:31.130Z,102311.09
2023-01-27T00:26:58.648Z,102305.88
2023-01-27T00:29:26.432Z,102317.63
2023-01-27T00:32:12.431Z,102312.63
2023-01-27T00:34:41.542Z,102303.06
2023-01-27T00:37:08.943Z,102303.44
2023-01-27T00:39:36.313Z,102306.03
2023-01-27T00:42:03.603Z,102305.06
2023-01-27T00:44:31.120Z,102307.44
2023-01-27T00:46:59.553Z,102302.19
2023-01-27T00:49:27.274Z,102304.84
2023-01-27T00:51:55.155Z,102305.00
2023-01-27T00:54:22.666Z,102299.13
2023-01-27T00:56:50.371Z,102303.75
2023-01-27T00:59:17.770Z,102301.16
2023-01-27T01:01:45.992Z,102308.13
2023-01-27T01:04:13.553Z,102297.22
2023-01-27T01:06:40.802Z,102296.09
2023-01-27T01:09:08.149Z,102296.09
2023-01-27T01:11:35.541Z,102303.69
2023-01-27T01:14:03.335Z,102294.34
2023-01-27T01:16:30.816Z,102302.94
2023-01-27T01:18:58.656Z,102291.81
2023-01-27T01:21:26.494Z,102306.25
2023-01-27T01:23:54.076Z,102300.28
2023-01-27T01:26:22.380Z,102297.16
2023-01-27T01:28:49.941Z,102289.38
2023-01-27T01:31:19.231Z,102297.84
2023-01-27T01:33:48.036Z,102287.94
2023-01-27T01:36:17.813Z,102295.56
2023-01-27T01:38:46.679Z,102294.97
2023-01-27T01:41:17.820Z,102293.38
2023-01-27T01:43:45.662Z,102296.75
2023-01-27T01:46:14.254Z,102293.28
2023-01-27T01:49:01.541Z,102294.75
2023-01-27T01:51:35.041Z,102292.31
2023-01-27T01:54:11.853Z,102294.41
2023-01-27T01:56:45.470Z,102289.97
2023-01-27T01:59:19.079Z,102296.47
2023-01-27T02:01:46.800Z,102296.34
2023-01-27T02:04:23.889Z,102299.81
2023-01-27T02:07:11.672Z,102304.91
2023-01-27T02:09:39.490Z,102298.63
2023-01-27T02:12:07.030Z,102300.25
2023-01-27T02:14:38.190Z,102285.91
2023-01-27T02:17:06.065Z,102294.50
2023-01-27T02:19:53.268Z,102289.09
2023-01-27T02:22:33.929Z,102282.03
2023-01-27T02:25:16.683Z,102288.94
2023-01-27T02:27:44.311Z,102284.34
2023-01-27T02:30:12.254Z,102289.19
2023-01-27T02:32:40.856Z,102274.94
2023-01-27T02:35:14.107Z,102280.38
2023-01-27T02:37:42.190Z,102274.81
2023-01-27T02:40:12.252Z,102277.16
2023-01-27T02:42:39.909Z,102270.28
2023-01-27T02:45:07.398Z,102272.28
2023-01-27T02:47:35.113Z,102268.56
2023-01-27T02:50:02.411Z,102270.34
2023-01-27T02:52:30.480Z,102263.22
2023-01-27T02:54:58.726Z,102259.38
2023-01-27T02:57:27.129Z,102259.28
2023-01-27T03:00:18.301Z,102249.16
2023-01-27T03:02:45.848Z,102258.28
2023-01-27T03:05:14.322Z,102246.78
2023-01-27T03:07:42.455Z,102254.44
2023-01-27T03:10:10.539Z,102244.78
2023-01-27T03:12:38.155Z,102248.19
2023-01-27T03:15:24.847Z,102253.63
2023-01-27T03:18:11.111Z,102247.69
2023-01-27T03:20:40.501Z,102245.03
2023-01-27T03:23:08.185Z,102249.41
2023-01-27T03:25:40.256Z,102243.22
2023-01-27T03:28:07.861Z,102257.13
2023-01-27T03:30:43.594Z,102244.91
2023-01-27T03:33:17.619Z,102255.72
2023-01-27T03:36:12.747Z,102249.22
2023-01-27T03:39:06.224Z,102251.59
2023-01-27T03:41:53.125Z,102252.69
2023-01-27T03:44:40.657Z,102244.09
2023-01-27T03:47:08.206Z,102235.78
2023-01-27T03:49:35.423Z,102237.72
2023-01-27T03:52:03.035Z,102249.13
2023-01-27T03:54:30.412Z,102251.50
2023-01-27T03:56:57.735Z,102253.66
2023-01-27T03:59:24.998Z,102249.13
2023-01-27T04:01:52.434Z,102250.06
2023-01-27T04:04:38.564Z,102244.47
2023-01-27T04:07:06.310Z,102246.97
2023-01-27T04:09:36.042Z,102241.63
2023-01-27T04:12:06.487Z,102250.63
2023-01-27T04:14:38.095Z,102253.50
2023-01-27T04:17:07.991Z,102240.09
2023-01-27T04:19:35.555Z,102247.06
2023-01-27T04:22:04.016Z,102241.88
2023-01-27T04:24:31.751Z,102243.00
2023-01-27T04:27:01.560Z,102242.84
2023-01-27T04:29:37.637Z,102238.47
2023-01-27T04:32:09.609Z,102236.69
2023-01-27T04:34:38.429Z,102236.03
2023-01-27T04:37:08.065Z,102238.88
2023-01-27T04:39:35.856Z,102238.19
2023-01-27T04:42:03.777Z,102241.91
2023-01-27T04:44:31.539Z,102237.50
2023-01-27T04:46:59.136Z,102233.22
2023-01-27T04:49:29.339Z,102232.25
2023-01-27T04:51:56.903Z,102238.09
2023-01-27T04:54:24.215Z,102241.19
2023-01-27T04:56:58.984Z,102236.47
2023-01-27T04:59:27.050Z,102234.97
2023-01-27T05:01:54.686Z,102236.00
2023-01-27T05:04:22.320Z,102228.53
2023-01-27T05:06:49.613Z,102224.25
2023-01-27T05:09:17.468Z,102228.63
2023-01-27T05:11:44.914Z,102228.00
2023-01-27T05:14:13.978Z,102233.66
2023-01-27T05:16:41.458Z,102234.38
2023-01-27T05:19:09.648Z,102237.22
2023-01-27T05:21:37.207Z,102240.28
2023-01-27T05:24:05.051Z,102234.47
2023-01-27T05:26:32.712Z,102224.81
2023-01-27T05:29:00.385Z,102233.88
2023-01-27T05:31:31.628Z,102230.56
2023-01-27T05:34:00.930Z,102228.13
2023-01-27T05:36:29.828Z,102224.31
2023-01-27T05:38:59.281Z,102225.28
2023-01-27T05:41:29.379Z,102224.56
2023-01-27T05:43:57.235Z,102224.44
2023-01-27T05:46:27.669Z,102229.66
2023-01-27T05:48:57.902Z,102230.31
2023-01-27T05:51:28.706Z,102236.13
2023-01-27T05:53:56.312Z,102228.13
2023-01-27T05:56:24.155Z,102228.03
2023-01-27T05:58:53.955Z,102230.97
2023-01-27T06:01:23.862Z,102231.41
2023-01-27T06:03:51.392Z,102234.28
2023-01-27T06:06:20.112Z,102234.53
2023-01-27T06:08:48.095Z,102235.25
2023-01-27T06:11:16.553Z,102238.16
2023-01-27T06:13:44.098Z,102241.88
2023-01-27T06:16:12.375Z,102231.19
2023-01-27T06:18:40.664Z,102241.06
2023-01-27T06:21:10.521Z,102237.19
2023-01-27T06:23:39.018Z,102237.03
2023-01-27T06:26:14.604Z,102245.66
2023-01-27T06:28:42.869Z,102234.00
2023-01-27T06:31:17.269Z,102238.13
2023-01-27T06:33:45.153Z,102239.38
2023-01-27T06:36:18.256Z,102238.81
2023-01-27T06:38:46.593Z,102232.34
2023-01-27T06:41:14.187Z,102233.31
2023-01-27T06:43:41.687Z,102238.28
2023-01-27T06:46:09.068Z,102237.31
2023-01-27T06:48:38.099Z,102247.75
2023-01-27T06:51:05.847Z,102241.00
2023-01-27T06:53:35.018Z,102246.78
2023-01-27T06:56:02.445Z,102246.88
2023-01-27T06:58:30.487Z,102247.00
2023-01-27T07:00:57.932Z,102245.22
2023-01-27T07:03:26.670Z,102245.97
2023-01-27T07:05:54.356Z,102244.50
2023-01-27T07:08:21.862Z,102238.28
2023-01-27T07:10:49.151Z,102245.44
2023-01-27T07:13:16.442Z,102251.34
2023-01-27T07:15:43.902Z,102248.66
2023-01-27T07:18:14.287Z,102239.28
2023-01-27T07:20:42.225Z,102246.34
2023-01-27T07:23:10.451Z,102244.63
2023-01-27T07:25:37.939Z,102249.38
2023-01-27T07:28:06.090Z,102260.53
2023-01-27T07:30:34.195Z,102254.47
2023-01-27T07:33:13.211Z,102259.63
2023-01-27T07:35:42.818Z,102251.59
2023-01-27T07:38:12.231Z,102254.03
2023-01-27T07:40:39.667Z,102261.25
2023-01-27T07:43:07.598Z,102250.94
2023-01-27T07:45:35.891Z,102251.59
2023-01-27T07:48:05.390Z,102246.41
2023-01-27T07:50:33.105Z,102239.38
2023-01-27T07:53:02.274Z,102248.28
2023-01-27T07:55:30.523Z,102244.97
2023-01-27T07:57:58.068Z,102243.34
2023-01-27T08:00:26.355Z,102252.84
2023-01-27T08:02:55.211Z,102250.81
2023-01-27T08:05:30.506Z,102251.81
2023-01-27T08:07:59.160Z,102244.50
2023-01-27T08:10:26.855Z,102255.16
2023-01-27T08:12:54.562Z,102245.81
2023-01-27T08:15:22.615Z,102254.00
2023-01-27T08:17:56.963Z,102242.22
2023-01-27T08:20:26.718Z,102245.06
2023-01-27T08:22:54.300Z,102241.50
2023-01-27T08:25:22.391Z,102245.03
2023-01-27T08:27:51.602Z,102244.19
2023-01-27T08:30:19.696Z,102245.50
2023-01-27T08:32:49.428Z,102246.59
2023-01-27T08:35:17.169Z,102236.66
2023-01-27T08:37:47.987Z,102233.13
2023-01-27T08:40:16.748Z,102232.13
2023-01-27T08:42:44.414Z,102239.22
2023-01-27T08:45:12.318Z,102233.69
2023-01-27T08:47:39.762Z,102237.56
2023-01-27T08:50:07.638Z,102234.84
2023-01-27T08:52:35.180Z,102238.41
2023-01-27T08:55:02.988Z,102248.78
2023-01-27T08:57:32.747Z,102244.28
2023-01-27T09:00:00.805Z,102248.16
2023-01-27T09:02:28.382Z,102255.66
2023-01-27T09:04:55.970Z,102252.38
2023-01-27T09:07:23.587Z,102252.13
2023-01-27T09:09:55.999Z,102246.31
2023-01-27T09:12:28.725Z,102249.97
2023-01-27T09:14:58.315Z,102243.81
2023-01-27T09:17:25.946Z,102251.75
2023-01-27T09:19:53.449Z,102240.31
2023-01-27T09:22:20.850Z,102239.72
2023-01-27T09:24:48.092Z,102242.97
2023-01-27T09:27:15.309Z,102238.72
2023-01-27T09:29:42.692Z,102232.94
2023-01-27T09:32:12.850Z,102237.84
2023-01-27T09:34:40.655Z,102239.53
2023-01-27T09:37:12.973Z,102239.97
2023-01-27T09:39:47.603Z,102239.09
2023-01-27T09:42:30.362Z,102242.38
2023-01-27T09:45:19.992Z,102242.59
2023-01-27T09:47:53.319Z,102243.34
2023-01-27T09:50:35.542Z,102250.66
2023-01-27T09:53:09.360Z,102255.34
2023-01-27T09:55:58.217Z,102253.47
2023-01-27T09:58:34.353Z,102256.66
2023-01-27T10:01:26.608Z,102257.03
2023-01-27T10:04:15.409Z,102252.28
2023-01-27T10:06:58.195Z,102250.97
2023-01-27T10:09:57.902Z,102249.06
2023-01-27T10:12:49.710Z,102247.25
2023-01-27T10:15:37.386Z,102248.34
2023-01-27T10:18:29.730Z,102258.66
2023-01-27T10:21:09.555Z,102260.94
2023-01-27T10:24:00.182Z,102256.03
2023-01-27T10:26:50.232Z,102269.22
2023-01-27T10:29:23.955Z,102270.06
2023-01-27T10:31:58.175Z,102273.19
2023-01-27T10:34:33.560Z,102263.31
2023-01-27T10:37:15.545Z,102257.66
2023-01-27T10:40:06.747Z,102263.59
2023-01-27T10:42:50.335Z,102261.63
2023-01-27T10:45:41.035Z,102261.63
2023-01-27T10:48:17.597Z,102246.41
2023-01-27T10:51:00.765Z,102259.03
2023-01-27T10:53:39.951Z,102250.19
2023-01-27T10:56:10.694Z,102255.16
2023-01-27T10:58:41.076Z,102257.25
2023-01-27T11:01:20.769Z,102257.16
2023-01-27T11:03:57.954Z,102260.28
2023-01-27T11:06:30.899Z,102263.47
2023-01-27T11:09:27.198Z,102258.25
2023-01-27T11:11:58.467Z,102264.28
2023-01-27T11:14:50.310Z,102260.22
2023-01-27T11:17:43.408Z,102247.69
2023-01-27T11:20:27.983Z,102250.78
2023-01-27T11:23:04.604Z,102246.00
2023-01-27T11:25:41.207Z,102239.97
2023-01-27T11:28:22.259Z,102242.56
2023-01-27T11:31:06.221Z,102242.78
2023-01-27T11:33:44.368Z,102242.59
2023-01-27T11:36:12.122Z,102250.31
2023-01-27T11:38:39.654Z,102254.22
2023-01-27T11:41:07.657Z,102244.00
2023-01-27T11:43:37.507Z,102242.66
2023-01-27T11:46:10.977Z,102238.16
2023-01-27T11:48:43.173Z,102231.38
2023-01-27T11:51:25.580Z,102232.31
2023-01-27T11:54:14.840Z,102237.38
2023-01-27T11:56:47.292Z,102234.94
2023-01-27T11:59:23.719Z,102230.00
2023-01-27T12:01:57.064Z,102218.56
2023-01-27T12:04:39.495Z,102210.97
2023-01-27T12:07:16.401Z,102205.63
2023-01-27T12:09:44.000Z,102216.53
2023-01-27T12:12:22.838Z,102202.34
2023-01-27T12:14:56.089Z,102197.13
2023-01-27T12:17:43.289Z,102198.78
2023-01-27T12:20:29.003Z,102195.16
2023-01-27T12:23:23.491Z,102189.13
2023-01-27T12:25:57.980Z,102196.41
2023-01-27T12:28:34.386Z,102190.59
2023-01-27T12:31:20.811Z,102186.75
2023-01-27T12:33:59.759Z,102183.91
2023-01-27T12:36:30.261Z,102195.59
2023-01-27T12:39:02.292Z,102185.69
2023-01-27T12:41:36.703Z,102187.28
2023-01-27T12:44:19.066Z,102185.25
2023-01-27T12:47:00.110Z,102190.38
2023-01-27T12:49:36.952Z,102187.56
2023-01-27T12:52:08.672Z,102192.16
2023-01-27T12:54:36.425Z,102191.56
2023-01-27T12:57:19.581Z,102193.59
2023-01-27T12:59:57.385Z,102187.25
2023-01-27T13:02:34.513Z,102176.47
2023-01-27T13:05:09.500Z,102178.63
2023-01-27T13:07:50.811Z,102178.88
2023-01-27T13:10:27.782Z,102180.16
2023-01-27T13:12:57.675Z,102173.31
2023-01-27T13:15:28.673Z,102165.78
2023-01-27T13:18:12.887Z,102165.31
2023-01-27T13:20:49.839Z,102164.28
2023-01-27T13:23:38.937Z,102153.75
2023-01-27T13:26:09.802Z,102159.28
2023-01-27T13:29:06.578Z,102150.88
2023-01-27T13:31:58.894Z,102151.09
2023-01-27T13:34:46.054Z,102135.34
2023-01-27T13:37:26.861Z,102137.88
2023-01-27T13:40:20.601Z,102143.84
2023-01-27T13:42:54.664Z,102143.22
2023-01-27T13:45:28.240Z,102147.06
2023-01-27T13:48:03.951Z,102145.53
2023-01-27T13:50:39.148Z,102144.16
2023-01-27T13:53:12.759Z,102141.47
2023-01-27T13:56:04.479Z,102134.28
2023-01-27T13:59:03.321Z,102139.31
2023-01-27T14:01:55.469Z,102136.41
2023-01-27T14:04:44.447Z,102140.31
2023-01-27T14:07:39.656Z,102146.84
2023-01-27T14:10:13.728Z,102147.56
2023-01-27T14:13:15.318Z,102136.50
2023-01-27T14:15:57.568Z,102124.22
2023-01-27T14:18:47.988Z,102128.72
2023-01-27T14:21:40.041Z,102122.06
2023-01-27T14:24:20.739Z,102122.97
2023-01-27T14:26:54.531Z,102130.00
2023-01-27T14:29:28.939Z,102124.25
2023-01-27T14:31:59.417Z,102124.91
2023-01-27T14:34:56.256Z,102129.50
2023-01-27T14:37:28.930Z,102121.91
2023-01-27T14:40:17.425Z,102121.69
2023-01-27T14:43:03.737Z,102126.63
2023-01-27T14:45:34.240Z,102133.38
2023-01-27T14:48:38.650Z,102135.31
2023-01-27T14:51:28.249Z,102129.28
2023-01-27T14:54:14.557Z,102133.44
2023-01-27T14:56:54.145Z,102136.03
2023-01-27T14:59:55.372Z,102144.25
2023-01-27T15:02:48.504Z,102143.19
2023-01-27T15:05:25.110Z,102142.41
2023-01-27T15:08:01.584Z,102136.19
2023-01-27T15:10:31.769Z,102132.94
2023-01-27T15:13:23.102Z,102135.50
2023-01-27T15:15:56.267Z,102148.63
2023-01-27T15:18:23.777Z,102145.78
2023-01-27T15:20:54.047Z,102148.63
2023-01-27T15:23:33.765Z,102153.72
2023-01-27T15:26:06.688Z,102156.78
2023-01-27T15:28:39.722Z,102160.06
2023-01-27T15:31:17.943Z,102155.91
2023-01-27T15:33:48.856Z,102170.47
2023-01-27T15:36:28.251Z,102159.00
2023-01-27T15:39:02.213Z,102159.03
2023-01-27T15:41:29.973Z,102156.66
2023-01-27T15:44:17.380Z,102164.13
2023-01-27T15:46:51.315Z,102164.13
2023-01-27T15:49:31.697Z,102164.06
2023-01-27T15:52:16.132Z,102166.91
2023-01-27T15:54:46.929Z,102162.28
2023-01-27T15:57:34.758Z,102168.13
2023-01-27T16:00:29.615Z,102163.75
2023-01-27T16:03:04.287Z,102168.50
2023-01-27T16:05:44.437Z,102175.59
2023-01-27T16:08:14.877Z,102171.03
2023-01-27T16:10:43.467Z,102173.63
2023-01-27T16:13:26.671Z,102174.59
2023-01-27T16:16:21.303Z,102177.31
2023-01-27T16:19:04.996Z,102177.31
2023-01-27T16:21:41.435Z,102178.97
2023-01-27T16:24:28.583Z,102179.53
2023-01-27T16:27:00.893Z,102180.06
2023-01-27T16:29:51.188Z,102185.44
2023-01-27T16:32:21.493Z,102187.78
2023-01-27T16:34:50.595Z,102185.38
2023-01-27T16:37:27.635Z,102185.31
2023-01-27T16:40:01.180Z,102187.97
2023-01-27T16:42:34.208Z,102183.06
2023-01-27T16:45:15.297Z,102186.63
2023-01-27T16:47:49.545Z,102184.97
2023-01-27T16:50:32.071Z,102188.50
2023-01-27T16:53:01.056Z,102191.13
2023-01-27T16:55:28.637Z,102183.59
2023-01-27T16:57:57.832Z,102192.69
2023-01-27T17:00:28.967Z,102191.28
2023-01-27T17:02:59.735Z,102189.28
2023-01-27T17:05:27.633Z,102194.78
2023-01-27T17:08:16.402Z,102195.81
2023-01-27T17:11:20.835Z,102202.59
2023-01-27T17:14:01.582Z,102202.03
2023-01-27T17:16:34.570Z,102198.97
2023-01-27T17:19:14.156Z,102202.25
2023-01-27T17:21:50.154Z,102207.84
2023-01-27T17:24:32.423Z,102208.09
2023-01-27T17:27:05.766Z,102205.16
2023-01-27T17:29:40.051Z,102216.03
2023-01-27T17:32:27.573Z,102214.09
2023-01-27T17:34:58.837Z,102203.88
2023-01-27T17:37:26.848Z,102213.94
2023-01-27T17:39:56.118Z,102217.75
2023-01-27T17:42:26.373Z,102212.19
2023-01-27T17:44:53.860Z,102222.56
2023-01-27T17:47:22.306Z,102225.91
2023-01-27T17:49:51.229Z,102230.16
2023-01-27T17:52:23.289Z,102224.81
2023-01-27T17:54:52.405Z,102224.47
2023-01-27T17:57:24.304Z,102233.63
2023-01-27T18:00:07.002Z,102226.31
2023-01-27T18:02:51.865Z,102233.44
2023-01-27T18:05:24.095Z,102235.06
2023-01-27T18:07:52.251Z,102238.09
2023-01-27T18:10:24.271Z,102253.53
2023-01-27T18:12:52.292Z,102236.69
2023-01-27T18:15:32.178Z,102253.09
2023-01-27T18:18:01.230Z,102264.44
2023-01-27T18:20:31.034Z,102260.00
2023-01-27T18:22:58.669Z,102259.75
2023-01-27T18:25:26.261Z,102267.66
2023-01-27T18:27:55.617Z,102271.47
2023-01-27T18:30:24.515Z,102271.41
2023-01-27T18:32:59.751Z,102282.38
2023-01-27T18:35:30.106Z,102274.53
2023-01-27T18:38:24.624Z,102276.56
2023-01-27T18:40:52.387Z,102276.94
2023-01-27T18:43:19.931Z,102306.81
2023-01-27T18:45:47.460Z,102288.19
2023-01-27T18:48:17.623Z,102285.44
2023-01-27T18:50:47.444Z,102286.28
2023-01-27T18:53:19.499Z,102298.34
2023-01-27T18:55:47.432Z,102305.16
2023-01-27T18:58:14.876Z,102307.13
2023-01-27T19:00:42.240Z,102308.22
2023-01-27T19:03:15.784Z,102305.97
2023-01-27T19:05:43.833Z,102309.03
2023-01-27T19:08:29.343Z,102318.94
2023-01-27T19:10:56.776Z,102314.41
2023-01-27T19:13:24.261Z,102329.72
2023-01-27T19:15:53.081Z,102326.66
2023-01-27T19:18:33.846Z,102328.00
2023-01-27T19:21:02.180Z,102337.56
2023-01-27T19:23:29.745Z,102345.19
2023-01-27T19:26:00.183Z,102339.94
2023-01-27T19:28:33.885Z,102341.41
2023-01-27T19:31:01.973Z,102352.00
2023-01-27T19:33:32.703Z,102350.38
2023-01-27T19:36:10.793Z,102350.88
2023-01-27T19:38:38.299Z,102356.16
2023-01-27T19:41:05.813Z,102350.31
2023-01-27T19:43:33.124Z,102356.06
2023-01-27T19:46:00.669Z,102353.47
2023-01-27T19:48:28.284Z,102356.16
2023-01-27T19:50:55.675Z,102361.50
2023-01-27T19:53:23.166Z,102364.59
2023-01-27T19:55:50.640Z,102360.03
2023-01-27T19:58:22.836Z,102364.09
2023-01-27T20:00:51.079Z,102376.25
2023-01-27T20:03:18.564Z,102375.84
2023-01-27T20:05:46.905Z,102370.00
2023-01-27T20:08:16.852Z,102385.00
2023-01-27T20:10:45.139Z,102389.06
2023-01-27T20:13:18.022Z,102395.38
2023-01-27T20:15:46.519Z,102383.78
2023-01-27T20:18:18.490Z,102396.44
2023-01-27T20:20:47.226Z,102394.72
2023-01-27T20:23:15.750Z,102387.84
2023-01-27T20:25:43.278Z,102393.28
2023-01-27T20:28:10.962Z,102395.38
2023-01-27T20:30:38.923Z,102387.78
2023-01-27T20:33:08.146Z,102402.44
2023-01-27T20:35:40.984Z,102398.72
2023-01-27T20:38:08.589Z,102401.53
2023-01-27T20:40:36.161Z,102401.25
2023-01-27T20:43:03.836Z,102397.31
2023-01-27T20:45:32.617Z,102397.88
2023-01-27T20:48:02.282Z,102401.13
2023-01-27T20:50:29.837Z,102410.34
2023-01-27T20:52:57.603Z,102402.69
2023-01-27T20:55:24.884Z,102411.00
2023-01-27T20:57:52.674Z,102413.69
2023-01-27T21:00:22.166Z,102413.50
2023-01-27T21:02:49.783Z,102414.75
2023-01-27T21:05:17.620Z,102418.38
2023-01-27T21:07:45.414Z,102424.44
2023-01-27T21:10:12.835Z,102430.66
2023-01-27T21:12:42.871Z,102423.25
2023-01-27T21:15:11.034Z,102425.66
2023-01-27T21:17:38.660Z,102433.34
2023-01-27T21:20:06.829Z,102436.91
2023-01-27T21:22:34.660Z,102431.13
2023-01-27T21:25:02.436Z,102427.56
2023-01-27T21:27:29.908Z,102431.13
2023-01-27T21:29:57.491Z,102441.75
2023-01-27T21:32:25.771Z,102441.28
2023-01-27T21:34:53.145Z,102436.50
2023-01-27T21:37:20.520Z,102437.56
2023-01-27T21:39:47.931Z,102441.50
2023-01-27T21:42:15.339Z,102441.84
2023-01-27T21:45:00.856Z,102439.59
2023-01-27T21:47:28.300Z,102443.34
2023-01-27T21:50:01.521Z,102440.00
2023-01-27T21:52:39.233Z,102437.41
2023-01-27T21:55:20.527Z,102438.63
2023-01-27T21:57:50.968Z,102445.28
2023-01-27T22:00:22.666Z,102441.78
2023-01-27T22:03:00.712Z,102431.63
2023-01-27T22:05:29.929Z,102431.00
2023-01-27T22:07:58.580Z,102432.34
2023-01-27T22:10:29.046Z,102430.91
2023-01-27T22:12:59.175Z,102437.16
2023-01-27T22:15:30.837Z,102435.63
2023-01-27T22:18:01.670Z,102431.00
2023-01-27T22:20:29.318Z,102425.91
2023-01-27T22:22:56.853Z,102428.09
2023-01-27T22:25:27.190Z,102422.75
2023-01-27T22:27:55.951Z,102419.81
2023-01-27T22:30:23.459Z,102425.50
2023-01-27T22:32:51.116Z,102422.09
2023-01-27T22:35:19.147Z,102416.00
2023-01-27T22:37:48.991Z,102418.91
2023-01-27T22:40:16.906Z,102420.94
2023-01-27T22:42:44.428Z,102417.97
2023-01-27T22:45:12.129Z,102415.13
2023-01-27T22:47:39.677Z,102420.41
2023-01-27T22:50:07.913Z,102427.16
2023-01-27T22:52:36.838Z,102422.41
2023-01-27T22:55:09.659Z,102421.63
2023-01-27T22:57:37.875Z,102424.22
2023-01-27T23:00:07.430Z,102426.16
2023-01-27T23:02:36.210Z,102431.16
2023-01-27T23:05:04.147Z,102432.13
2023-01-27T23:07:31.750Z,102420.78
2023-01-27T23:09:59.008Z,102424.06
2023-01-27T23:12:26.373Z,102423.84
2023-01-27T23:14:53.616Z,102424.47
2023-01-27T23:17:23.456Z,102432.63
2023-01-27T23:19:50.881Z,102434.06
2023-01-27T23:22:18.484Z,102429.38
2023-01-27T23:24:45.803Z,102425.28
2023-01-27T23:27:15.676Z,102429.97
2023-01-27T23:29:42.967Z,102433.28
2023-01-27T23:32:10.885Z,102430.16
2023-01-27T23:34:38.363Z,102429.22
2023-01-27T23:37:05.893Z,102431.19
2023-01-27T23:39:33.277Z,102436.72
2023-01-27T23:42:00.624Z,102429.97
2023-01-27T23:44:28.006Z,102428.63
2023-01-27T23:46:55.302Z,102433.09
2023-01-27T23:49:25.804Z,102434.50
2023-01-27T23:51:53.383Z,102434.41
2023-01-27T23:54:20.628Z,102431.31
2023-01-27T23:56:52.691Z,102439.78
2023-01-27T23:59:20.427Z,102445.88
